Little America, Illinois
Current Conditions -  °F | °C
As of 7:15 PM on Saturday 20 Dec 2014 (Local Time) from KMQB Reporting Station
Haze Haze  
Wind Chill: 30°   Ceiling: 1200
Heat Index: 34°   Visibility: 4mi
Dew Point: 33°   Wind: 5mph
Humidity: 95%   Direction: 150°SSE
Pressure: 30.24"   Gusts: NA
Location:  40.3324°N, 90.1539°W
Report Text: KMQB 210115Z AUTO 15004KT 4SM BR BKN012 OVC018 01/01 A3024 RMK AO2 T00120005
Loading
Personal Weather Stations






























Interactive Weather Map New forecast layout! Learn more

10-Day Weather Forecast

Advertisements
Track Severe Weather on mobile